KFLL

Fort Lauderdale / Hollywood International Airport

Fort Lauderdale, Florida, USA
METAR KFLL 221653Z 12013KT 10SM FEW025 BKN120 OVC200 27/23 A3008 RMK AO2 SLP185 T02670228
Observed Flight Rules
May-22 @ 16:53 UTC (54 minutes ago) Visual Flight Rules
Wind Visibility Clouds
120° at 13 knots 10 miles
  • Few at 2,500' AGL
  • Broken at 12,000' AGL
  • Overcast at 20,000' AGL
Temperatures Readings
Current 27°C / 81°F
Dewpoint 23°C / 73°F
Humidity 79%
Altimeter 30.08" Hg
Pressure 1018.5 hPa
Elevation 3
METAR KFLL 221653Z 12013KT 10SM FEW025 BKN120 OVC200 27/23 A3008 RMK AO2 SLP185 T02670228
Observed Flight Rules
May-22 @ 16:53 UTC
(54 minutes ago)
VFR
Wind Visibility
120° at 13 knots 10 miles
Clouds
  • Few at 2,500' AGL
  • Broken at 12,000' AGL
  • Overcast at 20,000' AGL
Temperature Dewpoint
27°C / 81°F 23°C / 73°F
Humidity Altimeter Pressure
79% 30.08" Hg 1018.5 hPa